EWG3CM EDDL-EDDH
Flight info
| Callsign | EWG3CM |
|---|---|
| Flight time | 0h 34m |
| Altitude | 31000 |
| Route | MEVEL1Z MEVEL DCT MUBZI M105 RIBSO RIBSO7A |
| Aircraft | A319/M-SDE3FGHIRWY/LB1 |
Departure
| Time | 2026-05-06 16:07 |
|---|---|
| Airport | Düsseldorf Airport (EDDL) |
Arrival
| Time | 2026-05-06 16:41 |
|---|---|
| Airport | Hamburg Helmut Schmidt Airport (EDDH) |
| Time | Latitude | Longitude | Altitude | Speed | Heading |
|---|---|---|---|---|---|
| 2026-05-06 15:54 | 51.28255 | 6.76729 | 118 ft | 0 kts | 224° |
| 2026-05-06 16:00 | 51.28261 | 6.76738 | 114 ft | 4 kts | 226° |
| 2026-05-06 16:00 | 51.28277 | 6.76769 | 113 ft | 4 kts | 240° |
| 2026-05-06 16:01 | 51.28286 | 6.76805 | 114 ft | 4 kts | 269° |
| 2026-05-06 16:01 | 51.28281 | 6.76836 | 114 ft | 2 kts | 322° |
| 2026-05-06 16:01 | 51.28280 | 6.76838 | 114 ft | 0 kts | 323° |
| 2026-05-06 16:03 | 51.28288 | 6.76828 | 114 ft | 3 kts | 323° |
| 2026-05-06 16:03 | 51.28308 | 6.76804 | 115 ft | 5 kts | 323° |
| 2026-05-06 16:04 | 51.28328 | 6.76780 | 115 ft | 0 kts | 323° |
| 2026-05-06 16:04 | 51.28336 | 6.76770 | 116 ft | 4 kts | 323° |
| 2026-05-06 16:04 | 51.28366 | 6.76733 | 117 ft | 7 kts | 322° |
| 2026-05-06 16:04 | 51.28412 | 6.76663 | 118 ft | 11 kts | 292° |
| 2026-05-06 16:05 | 51.28381 | 6.76548 | 118 ft | 13 kts | 232° |
| 2026-05-06 16:05 | 51.28321 | 6.76423 | 118 ft | 15 kts | 233° |
| 2026-05-06 16:05 | 51.28254 | 6.76281 | 117 ft | 17 kts | 233° |
| 2026-05-06 16:05 | 51.28194 | 6.76112 | 118 ft | 18 kts | 271° |
| 2026-05-06 16:06 | 51.28281 | 6.75994 | 116 ft | 13 kts | 324° |
| 2026-05-06 16:06 | 51.28367 | 6.76056 | 116 ft | 21 kts | 51° |
| 2026-05-06 16:06 | 51.28592 | 6.76523 | 115 ft | 90 kts | 53° |
| 2026-05-06 16:06 | 51.29105 | 6.77597 | 228 ft | 139 kts | 50° |
| 2026-05-06 16:07 | 51.29670 | 6.78829 | 885 ft | 137 kts | 49° |
| 2026-05-06 16:07 | 51.30238 | 6.80064 | 1487 ft | 143 kts | 50° |
| 2026-05-06 16:07 | 51.30893 | 6.81422 | 1811 ft | 164 kts | 49° |
| 2026-05-06 16:07 | 51.31638 | 6.82952 | 2164 ft | 187 kts | 50° |
| 2026-05-06 16:08 | 51.32479 | 6.84700 | 2570 ft | 212 kts | 50° |
| 2026-05-06 16:08 | 51.33423 | 6.86683 | 3087 ft | 237 kts | 51° |
| 2026-05-06 16:08 | 51.34445 | 6.88875 | 3806 ft | 251 kts | 48° |
| 2026-05-06 16:08 | 51.35812 | 6.90507 | 4708 ft | 256 kts | 21° |
| 2026-05-06 16:09 | 51.37568 | 6.90982 | 5676 ft | 259 kts | 2° |
| 2026-05-06 16:09 | 51.39381 | 6.91275 | 6640 ft | 264 kts | 8° |
| 2026-05-06 16:09 | 51.41203 | 6.91781 | 7572 ft | 268 kts | 11° |
| 2026-05-06 16:09 | 51.42625 | 6.92225 | 8330 ft | 269 kts | 11° |
| 2026-05-06 16:10 | 51.44498 | 6.92810 | 9336 ft | 271 kts | 11° |
| 2026-05-06 16:10 | 51.46339 | 6.93367 | 10193 ft | 277 kts | 11° |
| 2026-05-06 16:10 | 51.48316 | 6.93943 | 10509 ft | 300 kts | 10° |
| 2026-05-06 16:10 | 51.50338 | 6.94963 | 10854 ft | 319 kts | 22° |
| 2026-05-06 16:11 | 51.52404 | 6.96425 | 11509 ft | 327 kts | 24° |
| 2026-05-06 16:11 | 51.54474 | 6.97966 | 12212 ft | 333 kts | 24° |
| 2026-05-06 16:11 | 51.56531 | 6.99518 | 12930 ft | 338 kts | 24° |
| 2026-05-06 16:11 | 51.58686 | 7.01139 | 13593 ft | 345 kts | 24° |
| 2026-05-06 16:12 | 51.60863 | 7.02765 | 13863 ft | 362 kts | 24° |
| 2026-05-06 16:12 | 51.63180 | 7.04485 | 14350 ft | 370 kts | 24° |
| 2026-05-06 16:12 | 51.65538 | 7.06225 | 14925 ft | 375 kts | 23° |
| 2026-05-06 16:12 | 51.67923 | 7.07976 | 15537 ft | 379 kts | 23° |
| 2026-05-06 16:13 | 51.70335 | 7.09749 | 16142 ft | 383 kts | 23° |
| 2026-05-06 16:13 | 51.72780 | 7.11545 | 16748 ft | 388 kts | 23° |
| 2026-05-06 16:13 | 51.75250 | 7.13366 | 17364 ft | 392 kts | 24° |
| 2026-05-06 16:13 | 51.77714 | 7.15188 | 17982 ft | 397 kts | 24° |
| 2026-05-06 16:14 | 51.79605 | 7.16567 | 18421 ft | 400 kts | 22° |
| 2026-05-06 16:14 | 51.82165 | 7.18437 | 18954 ft | 404 kts | 24° |
| 2026-05-06 16:14 | 51.84540 | 7.20197 | 19428 ft | 408 kts | 23° |
| 2026-05-06 16:14 | 51.87032 | 7.22490 | 19928 ft | 414 kts | 32° |
| 2026-05-06 16:15 | 51.89461 | 7.25021 | 20452 ft | 417 kts | 32° |
| 2026-05-06 16:15 | 51.91928 | 7.27570 | 20940 ft | 421 kts | 31° |
| 2026-05-06 16:15 | 51.94295 | 7.30002 | 21420 ft | 424 kts | 31° |
| 2026-05-06 16:15 | 51.96437 | 7.32192 | 21807 ft | 428 kts | 31° |
| 2026-05-06 16:16 | 51.98960 | 7.34773 | 22335 ft | 430 kts | 31° |
| 2026-05-06 16:16 | 52.01506 | 7.37383 | 22793 ft | 434 kts | 32° |
| 2026-05-06 16:16 | 52.04064 | 7.40015 | 23272 ft | 437 kts | 32° |
| 2026-05-06 16:16 | 52.06638 | 7.42674 | 23681 ft | 440 kts | 31° |
| 2026-05-06 16:17 | 52.09231 | 7.45358 | 24082 ft | 443 kts | 31° |
| 2026-05-06 16:17 | 52.11841 | 7.48057 | 24484 ft | 445 kts | 31° |
| 2026-05-06 16:17 | 52.14429 | 7.50737 | 24794 ft | 447 kts | 32° |
| 2026-05-06 16:17 | 52.17052 | 7.53460 | 24884 ft | 452 kts | 32° |
| 2026-05-06 16:18 | 52.19691 | 7.56200 | 24893 ft | 456 kts | 32° |
| 2026-05-06 16:18 | 52.22371 | 7.58988 | 24891 ft | 458 kts | 32° |
| 2026-05-06 16:18 | 52.25057 | 7.61788 | 24890 ft | 458 kts | 32° |
| 2026-05-06 16:18 | 52.27742 | 7.64594 | 24895 ft | 458 kts | 32° |
| 2026-05-06 16:19 | 52.30422 | 7.67398 | 24887 ft | 456 kts | 32° |
| 2026-05-06 16:19 | 52.33055 | 7.70158 | 24886 ft | 456 kts | 31° |
| 2026-05-06 16:19 | 52.35727 | 7.72957 | 24885 ft | 455 kts | 31° |
| 2026-05-06 16:19 | 52.38392 | 7.75752 | 24880 ft | 455 kts | 31° |
| 2026-05-06 16:20 | 52.41066 | 7.78563 | 24880 ft | 456 kts | 31° |
| 2026-05-06 16:20 | 52.43734 | 7.81372 | 24885 ft | 456 kts | 31° |
| 2026-05-06 16:20 | 52.46400 | 7.84185 | 24887 ft | 456 kts | 32° |
| 2026-05-06 16:20 | 52.49066 | 7.86996 | 24884 ft | 456 kts | 31° |
| 2026-05-06 16:21 | 52.50834 | 7.88863 | 24894 ft | 455 kts | 32° |
| 2026-05-06 16:21 | 52.53500 | 7.91686 | 24896 ft | 455 kts | 32° |
| 2026-05-06 16:21 | 52.56157 | 7.94505 | 24892 ft | 454 kts | 32° |
| 2026-05-06 16:21 | 52.58815 | 7.97328 | 24891 ft | 454 kts | 31° |
| 2026-05-06 16:22 | 52.61467 | 8.00149 | 24891 ft | 454 kts | 32° |
| 2026-05-06 16:22 | 52.64118 | 8.02972 | 24891 ft | 453 kts | 32° |
| 2026-05-06 16:22 | 52.66764 | 8.05799 | 24889 ft | 453 kts | 32° |
| 2026-05-06 16:22 | 52.69403 | 8.08633 | 24894 ft | 452 kts | 32° |
| 2026-05-06 16:23 | 52.71808 | 8.11865 | 24882 ft | 445 kts | 47° |
| 2026-05-06 16:23 | 52.73529 | 8.16079 | 24887 ft | 443 kts | 65° |
| 2026-05-06 16:23 | 52.74549 | 8.20863 | 24888 ft | 443 kts | 73° |
| 2026-05-06 16:23 | 52.75434 | 8.25728 | 24885 ft | 443 kts | 73° |
| 2026-05-06 16:24 | 52.76592 | 8.30393 | 24882 ft | 451 kts | 60° |
| 2026-05-06 16:24 | 52.78493 | 8.34633 | 24679 ft | 454 kts | 49° |
| 2026-05-06 16:24 | 52.80547 | 8.38502 | 24415 ft | 453 kts | 48° |
| 2026-05-06 16:24 | 52.82639 | 8.42415 | 23616 ft | 453 kts | 48° |
| 2026-05-06 16:25 | 52.84723 | 8.46307 | 22698 ft | 452 kts | 48° |
| 2026-05-06 16:25 | 52.86799 | 8.50186 | 21900 ft | 447 kts | 48° |
| 2026-05-06 16:25 | 52.88843 | 8.54019 | 21107 ft | 442 kts | 48° |
| 2026-05-06 16:25 | 52.90860 | 8.57816 | 20325 ft | 436 kts | 49° |
| 2026-05-06 16:26 | 52.92849 | 8.61579 | 19544 ft | 432 kts | 48° |
| 2026-05-06 16:26 | 52.94813 | 8.65308 | 18767 ft | 428 kts | 49° |
| 2026-05-06 16:26 | 52.96763 | 8.69014 | 17974 ft | 426 kts | 50° |
| 2026-05-06 16:26 | 52.98702 | 8.72697 | 17204 ft | 421 kts | 50° |
| 2026-05-06 16:27 | 53.00612 | 8.76329 | 16507 ft | 415 kts | 50° |
| 2026-05-06 16:27 | 53.02498 | 8.79922 | 15835 ft | 410 kts | 50° |
| 2026-05-06 16:27 | 53.04362 | 8.83481 | 15187 ft | 405 kts | 50° |
| 2026-05-06 16:27 | 53.06197 | 8.86986 | 14562 ft | 399 kts | 50° |
| 2026-05-06 16:28 | 53.07983 | 8.90399 | 13941 ft | 394 kts | 50° |
| 2026-05-06 16:28 | 53.09734 | 8.93746 | 13272 ft | 389 kts | 50° |
| 2026-05-06 16:28 | 53.11524 | 8.97176 | 12607 ft | 382 kts | 50° |
| 2026-05-06 16:28 | 53.13248 | 9.00492 | 11958 ft | 374 kts | 50° |
| 2026-05-06 16:29 | 53.14936 | 9.03747 | 11298 ft | 368 kts | 50° |
| 2026-05-06 16:29 | 53.16584 | 9.06928 | 10947 ft | 353 kts | 50° |
| 2026-05-06 16:29 | 53.18150 | 9.09946 | 10824 ft | 334 kts | 50° |
| 2026-05-06 16:29 | 53.19567 | 9.12677 | 10708 ft | 319 kts | 50° |
| 2026-05-06 16:30 | 53.21044 | 9.15534 | 10572 ft | 304 kts | 50° |
| 2026-05-06 16:30 | 53.21947 | 9.17285 | 10496 ft | 297 kts | 50° |
| 2026-05-06 16:30 | 53.23690 | 9.20674 | 10317 ft | 284 kts | 50° |
| 2026-05-06 16:30 | 53.24967 | 9.23153 | 10222 ft | 280 kts | 50° |
| 2026-05-06 16:31 | 53.26240 | 9.25624 | 10151 ft | 280 kts | 51° |
| 2026-05-06 16:31 | 53.27531 | 9.28135 | 10042 ft | 289 kts | 51° |
| 2026-05-06 16:31 | 53.28845 | 9.30690 | 9906 ft | 290 kts | 51° |
| 2026-05-06 16:31 | 53.30166 | 9.33261 | 9540 ft | 294 kts | 51° |
| 2026-05-06 16:32 | 53.31490 | 9.35841 | 9286 ft | 290 kts | 51° |
| 2026-05-06 16:32 | 53.32794 | 9.38383 | 8915 ft | 286 kts | 51° |
| 2026-05-06 16:32 | 53.34075 | 9.40884 | 8544 ft | 280 kts | 51° |
| 2026-05-06 16:32 | 53.35331 | 9.43339 | 8190 ft | 275 kts | 51° |
| 2026-05-06 16:33 | 53.36563 | 9.45765 | 7818 ft | 270 kts | 52° |
| 2026-05-06 16:33 | 53.37765 | 9.48154 | 7385 ft | 266 kts | 51° |
| 2026-05-06 16:33 | 53.38944 | 9.50499 | 6955 ft | 260 kts | 51° |
| 2026-05-06 16:34 | 53.41204 | 9.54997 | 6178 ft | 247 kts | 50° |
| 2026-05-06 16:34 | 53.42319 | 9.57217 | 5831 ft | 243 kts | 50° |
| 2026-05-06 16:34 | 53.43380 | 9.59331 | 5495 ft | 239 kts | 50° |
| 2026-05-06 16:34 | 53.44446 | 9.61457 | 5186 ft | 234 kts | 50° |
| 2026-05-06 16:35 | 53.45488 | 9.63537 | 4972 ft | 230 kts | 51° |
| 2026-05-06 16:35 | 53.46508 | 9.65575 | 4729 ft | 227 kts | 51° |
| 2026-05-06 16:35 | 53.47510 | 9.67596 | 4512 ft | 222 kts | 51° |
| 2026-05-06 16:35 | 53.48484 | 9.69562 | 4256 ft | 219 kts | 51° |
| 2026-05-06 16:36 | 53.49457 | 9.71511 | 3969 ft | 215 kts | 51° |
| 2026-05-06 16:36 | 53.50399 | 9.73396 | 3683 ft | 207 kts | 51° |
| 2026-05-06 16:36 | 53.51310 | 9.75220 | 3407 ft | 199 kts | 51° |
| 2026-05-06 16:36 | 53.52186 | 9.76974 | 3148 ft | 192 kts | 51° |
| 2026-05-06 16:37 | 53.53028 | 9.78664 | 2884 ft | 185 kts | 51° |
| 2026-05-06 16:37 | 53.53834 | 9.80281 | 2642 ft | 176 kts | 51° |
| 2026-05-06 16:37 | 53.54582 | 9.81782 | 2418 ft | 161 kts | 50° |
| 2026-05-06 16:37 | 53.55272 | 9.83168 | 2191 ft | 147 kts | 51° |
| 2026-05-06 16:38 | 53.55907 | 9.84444 | 1990 ft | 138 kts | 51° |
| 2026-05-06 16:38 | 53.56516 | 9.85668 | 1814 ft | 135 kts | 50° |
| 2026-05-06 16:38 | 53.57113 | 9.86871 | 1631 ft | 133 kts | 49° |
| 2026-05-06 16:38 | 53.57712 | 9.88075 | 1442 ft | 134 kts | 50° |
| 2026-05-06 16:39 | 53.58308 | 9.89276 | 1255 ft | 133 kts | 50° |
| 2026-05-06 16:39 | 53.58905 | 9.90479 | 1044 ft | 134 kts | 50° |
| 2026-05-06 16:39 | 53.59495 | 9.91665 | 840 ft | 133 kts | 50° |
| 2026-05-06 16:39 | 53.60078 | 9.92874 | 686 ft | 135 kts | 50° |
| 2026-05-06 16:40 | 53.60693 | 9.94075 | 513 ft | 134 kts | 49° |
| 2026-05-06 16:40 | 53.61295 | 9.95283 | 298 ft | 137 kts | 50° |
| 2026-05-06 16:40 | 53.61895 | 9.96502 | 120 ft | 135 kts | 51° |
| 2026-05-06 16:40 | 53.62474 | 9.97671 | 43 ft | 118 kts | 50° |
| 2026-05-06 16:41 | 53.62917 | 9.98579 | 44 ft | 76 kts | 50° |
| 2026-05-06 16:41 | 53.63168 | 9.99086 | 46 ft | 47 kts | 50° |
| 2026-05-06 16:41 | 53.63289 | 9.99412 | 46 ft | 19 kts | 81° |
| 2026-05-06 16:41 | 53.63282 | 9.99605 | 48 ft | 15 kts | 99° |
| 2026-05-06 16:42 | 53.63280 | 9.99633 | 48 ft | 0 kts | 99° |
| 2026-05-06 16:42 | 53.63278 | 9.99648 | 48 ft | 3 kts | 99° |
| 2026-05-06 16:43 | 53.63266 | 9.99713 | 47 ft | 8 kts | 120° |
| 2026-05-06 16:43 | 53.63213 | 9.99772 | 48 ft | 11 kts | 153° |
| 2026-05-06 16:43 | 53.63137 | 9.99835 | 48 ft | 14 kts | 153° |
| 2026-05-06 16:43 | 53.63044 | 9.99915 | 48 ft | 16 kts | 152° |
| 2026-05-06 16:44 | 53.62933 | 10.00007 | 48 ft | 19 kts | 158° |
| 2026-05-06 16:44 | 53.62819 | 10.00094 | 48 ft | 13 kts | 152° |
| 2026-05-06 16:44 | 53.62781 | 10.00160 | 48 ft | 8 kts | 80° |
| 2026-05-06 16:44 | 53.62806 | 10.00236 | 47 ft | 4 kts | 63° |
| 2026-05-06 16:45 | 53.62809 | 10.00246 | 48 ft | 0 kts | 63° |